createdAt,value
2022-09-21T00:01:36.432Z,5.30
2022-09-21T00:04:05.023Z,5.00
2022-09-21T00:06:35.084Z,6.00
2022-09-21T00:09:05.061Z,7.20
2022-09-21T00:11:35.948Z,5.80
2022-09-21T00:14:08.931Z,6.47
2022-09-21T00:16:41.682Z,7.30
2022-09-21T00:19:10.260Z,7.60
2022-09-21T00:21:38.273Z,5.23
2022-09-21T00:24:10.134Z,4.50
2022-09-21T00:26:39.579Z,5.93
2022-09-21T00:29:09.981Z,7.03
2022-09-21T00:31:37.781Z,7.03
2022-09-21T00:34:07.991Z,5.40
2022-09-21T00:36:35.943Z,6.10
2022-09-21T00:39:04.259Z,5.03
2022-09-21T00:41:36.084Z,5.10
2022-09-21T00:44:29.982Z,4.77
2022-09-21T00:47:03.854Z,4.83
2022-09-21T00:49:33.948Z,4.60
2022-09-21T00:52:06.699Z,4.77
2022-09-21T00:54:43.809Z,4.80
2022-09-21T00:57:11.445Z,5.27
2022-09-21T00:59:40.043Z,3.70
2022-09-21T01:02:09.827Z,4.23
2022-09-21T01:04:42.853Z,4.10
2022-09-21T01:07:18.405Z,4.83
2022-09-21T01:09:50.850Z,3.80
2022-09-21T01:12:45.024Z,4.30
2022-09-21T01:15:29.927Z,4.90
2022-09-21T01:18:12.270Z,4.50
2022-09-21T01:21:11.466Z,3.90
2022-09-21T01:23:52.459Z,3.60
2022-09-21T01:26:37.617Z,3.97
2022-09-21T01:29:23.904Z,3.37
2022-09-21T01:32:21.012Z,4.07
2022-09-21T01:35:11.255Z,4.00
2022-09-21T01:38:15.101Z,4.77
2022-09-21T01:40:47.144Z,4.70
2022-09-21T01:43:32.225Z,4.07
2022-09-21T01:46:04.275Z,4.33
2022-09-21T01:48:39.486Z,4.27
2022-09-21T01:51:10.899Z,3.90
2022-09-21T01:53:45.317Z,4.30
2022-09-21T01:56:30.875Z,4.40
2022-09-21T01:59:18.420Z,4.40
2022-09-21T02:01:55.363Z,4.00
2022-09-21T02:04:22.579Z,4.13
2022-09-21T02:06:51.217Z,4.17
2022-09-21T02:09:21.164Z,4.07
2022-09-21T02:11:48.377Z,3.80
2022-09-21T02:14:24.766Z,3.73
2022-09-21T02:17:03.569Z,4.30
2022-09-21T02:19:50.612Z,3.77
2022-09-21T02:22:46.320Z,4.17
2022-09-21T02:25:48.194Z,4.10
2022-09-21T02:28:27.443Z,3.63
2022-09-21T02:31:10.181Z,3.70
2022-09-21T02:33:57.639Z,4.00
2022-09-21T02:36:47.746Z,3.33
2022-09-21T02:39:44.970Z,3.30
2022-09-21T02:42:22.088Z,3.67
2022-09-21T02:45:10.323Z,2.50
2022-09-21T02:47:50.719Z,4.93
2022-09-21T02:50:45.014Z,5.67
2022-09-21T02:53:17.490Z,4.27
2022-09-21T02:55:46.869Z,4.13
2022-09-21T02:58:21.191Z,3.37
2022-09-21T03:00:50.798Z,3.60
2022-09-21T03:03:22.123Z,3.47
2022-09-21T03:05:52.743Z,4.30
2022-09-21T03:08:21.334Z,3.70
2022-09-21T03:10:50.920Z,3.80
2022-09-21T03:13:20.812Z,4.27
2022-09-21T03:15:48.033Z,4.40
2022-09-21T03:18:17.579Z,3.60
2022-09-21T03:20:48.624Z,3.80
2022-09-21T03:23:15.858Z,3.73
2022-09-21T03:25:46.346Z,3.83
2022-09-21T03:28:16.693Z,3.23
2022-09-21T03:30:45.775Z,4.77
2022-09-21T03:33:13.118Z,4.50
2022-09-21T03:35:43.243Z,4.50
2022-09-21T03:38:10.270Z,3.30
2022-09-21T03:40:39.965Z,3.60
2022-09-21T03:43:09.540Z,3.57
2022-09-21T03:45:38.157Z,3.83
2022-09-21T03:48:05.357Z,3.73
2022-09-21T03:50:35.278Z,2.73
2022-09-21T03:53:02.334Z,3.00
2022-09-21T03:55:29.964Z,3.10
2022-09-21T03:57:56.998Z,2.90
2022-09-21T04:00:24.014Z,2.80
2022-09-21T04:02:57.111Z,3.53
2022-09-21T04:05:27.800Z,3.37
2022-09-21T04:08:02.607Z,4.07
2022-09-21T04:10:33.357Z,3.43
2022-09-21T04:13:04.370Z,2.70
2022-09-21T04:15:33.731Z,3.03
2022-09-21T04:18:00.762Z,3.93
2022-09-21T04:20:30.409Z,3.33
2022-09-21T04:22:58.218Z,2.90
2022-09-21T04:25:26.866Z,3.13
2022-09-21T04:27:54.516Z,3.47
2022-09-21T04:30:33.229Z,3.20
2022-09-21T04:33:04.324Z,12.73
2022-09-21T04:35:34.025Z,5.30
2022-09-21T04:38:03.556Z,4.37
2022-09-21T04:40:33.135Z,4.20
2022-09-21T04:43:02.820Z,4.07
2022-09-21T04:45:32.638Z,3.40
2022-09-21T04:48:00.597Z,3.10
2022-09-21T04:50:28.253Z,3.60
2022-09-21T04:53:01.375Z,5.03
2022-09-21T04:55:31.728Z,4.00
2022-09-21T04:57:58.754Z,4.73
2022-09-21T05:00:29.630Z,4.40
2022-09-21T05:02:57.104Z,3.07
2022-09-21T05:05:34.604Z,3.70
2022-09-21T05:08:02.258Z,3.23
2022-09-21T05:10:30.608Z,3.20
2022-09-21T05:12:59.876Z,3.10
2022-09-21T05:15:29.900Z,3.50
2022-09-21T05:17:57.990Z,4.63
2022-09-21T05:20:25.362Z,4.33
2022-09-21T05:22:52.958Z,3.60
2022-09-21T05:25:20.597Z,4.20
2022-09-21T05:28:03.009Z,4.33
2022-09-21T05:30:30.734Z,3.50
2022-09-21T05:33:03.976Z,3.13
2022-09-21T05:36:37.867Z,3.33
2022-09-21T05:39:08.882Z,3.93
2022-09-21T05:41:36.708Z,4.63
2022-09-21T05:44:12.020Z,3.30
2022-09-21T05:46:44.192Z,3.13
2022-09-21T05:49:47.855Z,3.67
2022-09-21T05:52:39.697Z,4.07
2022-09-21T05:56:00.903Z,3.10
2022-09-21T05:59:20.298Z,4.20
2022-09-21T06:03:01.460Z,3.80
2022-09-21T06:05:36.688Z,3.43
2022-09-21T06:08:06.837Z,3.53
2022-09-21T06:10:35.648Z,3.80
2022-09-21T06:13:05.228Z,3.57
2022-09-21T06:15:41.252Z,3.80
2022-09-21T06:18:12.155Z,4.30
2022-09-21T06:20:41.547Z,3.50
2022-09-21T06:23:11.702Z,3.53
2022-09-21T06:25:41.312Z,5.17
2022-09-21T06:28:16.578Z,3.87
2022-09-21T06:30:49.561Z,4.47
2022-09-21T06:33:20.794Z,4.00
2022-09-21T06:36:01.832Z,4.43
2022-09-21T06:38:31.992Z,4.50
2022-09-21T06:41:06.796Z,4.50
2022-09-21T06:43:37.934Z,4.30
2022-09-21T06:46:05.971Z,4.30
2022-09-21T06:48:35.968Z,4.37
2022-09-21T06:51:10.805Z,4.47
2022-09-21T06:53:39.588Z,3.87
2022-09-21T06:56:12.787Z,3.77
2022-09-21T06:58:45.225Z,4.10
2022-09-21T07:01:19.273Z,4.53
2022-09-21T07:03:55.825Z,4.50
2022-09-21T07:06:32.055Z,4.77
2022-09-21T07:11:47.487Z,5.43
2022-09-21T07:14:19.920Z,3.80
2022-09-21T07:16:51.647Z,4.63
2022-09-21T07:19:21.195Z,4.20
2022-09-21T07:21:58.053Z,4.17
2022-09-21T07:24:25.290Z,4.73
2022-09-21T07:26:55.369Z,5.40
2022-09-21T07:29:25.643Z,5.07
2022-09-21T07:31:55.485Z,5.57
2022-09-21T07:34:22.778Z,4.90
2022-09-21T07:36:51.860Z,5.43
2022-09-21T07:39:19.166Z,5.20
2022-09-21T07:41:50.861Z,4.50
2022-09-21T07:44:22.698Z,5.30
2022-09-21T07:46:50.345Z,4.97
2022-09-21T07:49:23.059Z,5.63
2022-09-21T07:51:50.279Z,5.50
2022-09-21T07:54:17.433Z,6.27
2022-09-21T07:57:04.627Z,5.07
2022-09-21T07:59:33.039Z,5.30
2022-09-21T08:02:09.991Z,5.63
2022-09-21T08:04:57.031Z,4.83
2022-09-21T08:07:24.252Z,5.27
2022-09-21T08:09:51.497Z,4.93
2022-09-21T08:12:21.234Z,5.20
2022-09-21T08:14:49.687Z,4.20
2022-09-21T08:17:19.701Z,4.77
2022-09-21T08:19:47.980Z,4.80
2022-09-21T08:22:15.164Z,4.50
2022-09-21T08:24:46.295Z,5.67
2022-09-21T08:27:21.589Z,4.10
2022-09-21T08:29:51.973Z,4.20
2022-09-21T08:32:49.927Z,3.77
2022-09-21T08:35:19.251Z,4.27
2022-09-21T08:37:53.659Z,3.80
2022-09-21T08:40:24.165Z,3.97
2022-09-21T08:43:02.457Z,3.53
2022-09-21T08:45:47.998Z,3.43
2022-09-21T08:48:28.459Z,3.70
2022-09-21T08:51:02.914Z,2.80
2022-09-21T08:53:48.498Z,3.20
2022-09-21T08:56:22.664Z,3.27
2022-09-21T08:58:52.646Z,2.97
2022-09-21T09:01:39.718Z,3.20
2022-09-21T09:04:57.237Z,3.00
2022-09-21T09:08:09.209Z,2.70
2022-09-21T09:11:08.563Z,2.30
2022-09-21T09:14:21.886Z,1.50
2022-09-21T09:17:39.310Z,1.60
2022-09-21T09:20:40.280Z,1.30
2022-09-21T09:23:21.773Z,1.13
2022-09-21T09:25:55.027Z,1.73
2022-09-21T09:28:34.033Z,1.30
2022-09-21T09:31:31.814Z,0.90
2022-09-21T09:34:30.834Z,1.20
2022-09-21T09:37:16.383Z,1.10
2022-09-21T09:39:55.330Z,1.20
2022-09-21T09:42:46.257Z,1.00
2022-09-21T09:45:48.319Z,0.73
2022-09-21T09:48:54.428Z,1.17
2022-09-21T09:51:27.348Z,1.40
2022-09-21T09:54:06.877Z,0.97
2022-09-21T09:56:42.341Z,1.03
2022-09-21T09:59:30.947Z,0.90
2022-09-21T10:02:26.021Z,0.93
2022-09-21T10:05:09.180Z,1.10
2022-09-21T10:07:45.178Z,0.80
2022-09-21T10:10:39.340Z,0.90
2022-09-21T10:13:25.098Z,0.90
2022-09-21T10:15:55.170Z,0.70
2022-09-21T10:19:03.066Z,0.90
2022-09-21T10:21:48.800Z,0.90
2022-09-21T10:24:38.827Z,0.77
2022-09-21T10:27:14.167Z,1.40
2022-09-21T10:29:50.082Z,0.90
2022-09-21T10:32:23.152Z,1.00
2022-09-21T10:35:15.300Z,0.83
2022-09-21T10:37:54.037Z,1.00
2022-09-21T10:40:21.408Z,1.10
2022-09-21T10:42:58.692Z,0.60
2022-09-21T10:45:30.933Z,0.70
2022-09-21T10:48:19.176Z,0.70
2022-09-21T10:50:51.930Z,0.70
2022-09-21T10:53:32.001Z,0.60
2022-09-21T10:56:18.755Z,0.70
2022-09-21T10:59:24.481Z,0.90
2022-09-21T11:02:02.948Z,0.83
2022-09-21T11:04:48.461Z,1.30
2022-09-21T11:07:19.740Z,0.83
2022-09-21T11:09:59.008Z,0.80
2022-09-21T11:12:43.198Z,0.70
2022-09-21T11:15:34.036Z,0.60
2022-09-21T11:18:21.787Z,0.63
2022-09-21T11:20:59.673Z,0.70
2022-09-21T11:23:44.936Z,1.50
2022-09-21T11:26:33.154Z,0.70
2022-09-21T11:29:17.745Z,0.70
2022-09-21T11:32:23.122Z,0.97
2022-09-21T11:35:27.937Z,0.70
2022-09-21T11:38:33.706Z,0.50
2022-09-21T11:41:27.825Z,0.70
2022-09-21T11:44:17.390Z,0.50
2022-09-21T11:47:26.516Z,0.80
2022-09-21T11:50:30.902Z,0.60
2022-09-21T11:54:17.888Z,0.70
2022-09-21T11:56:54.475Z,1.00
2022-09-21T11:59:57.757Z,0.60
2022-09-21T12:02:31.596Z,0.57
2022-09-21T12:05:25.851Z,0.93
2022-09-21T12:07:58.888Z,0.90
2022-09-21T12:11:06.462Z,0.80
2022-09-21T12:13:45.478Z,0.80
2022-09-21T12:16:26.351Z,0.67
2022-09-21T12:19:12.145Z,0.70
2022-09-21T12:21:50.017Z,0.60
2022-09-21T12:24:45.430Z,0.77
2022-09-21T12:28:05.543Z,0.60
2022-09-21T12:30:34.586Z,0.50
2022-09-21T12:33:35.719Z,0.80
2022-09-21T12:36:17.128Z,2.90
2022-09-21T12:39:16.286Z,0.87
2022-09-21T12:42:02.116Z,0.70
2022-09-21T12:44:57.406Z,0.80
2022-09-21T12:47:30.046Z,0.93
2022-09-21T12:50:34.189Z,0.63
2022-09-21T12:53:04.696Z,0.60
2022-09-21T12:56:16.519Z,0.73
2022-09-21T12:59:23.050Z,0.60
2022-09-21T13:01:57.132Z,0.80
2022-09-21T13:04:45.770Z,0.70
2022-09-21T13:07:34.712Z,0.57
2022-09-21T13:10:31.709Z,0.93
2022-09-21T13:13:03.580Z,0.73
2022-09-21T13:15:47.708Z,0.60
2022-09-21T13:18:35.106Z,0.80
2022-09-21T13:21:20.419Z,0.70
2022-09-21T13:24:01.577Z,1.30
2022-09-21T13:26:43.493Z,0.80
2022-09-21T13:29:19.973Z,0.77
2022-09-21T13:32:01.076Z,0.67
2022-09-21T13:34:35.690Z,0.63
2022-09-21T13:37:11.683Z,1.20
2022-09-21T13:39:55.732Z,0.70
2022-09-21T13:42:47.602Z,1.10
2022-09-21T13:45:20.761Z,0.93
2022-09-21T13:47:59.036Z,0.70
2022-09-21T13:50:39.927Z,1.07
2022-09-21T13:53:21.340Z,0.60
2022-09-21T13:56:01.569Z,0.80
2022-09-21T13:58:36.771Z,0.80
2022-09-21T14:01:46.379Z,1.07
2022-09-21T14:04:36.791Z,0.87
2022-09-21T14:07:08.733Z,0.67
2022-09-21T14:09:51.681Z,0.63
2022-09-21T14:12:25.761Z,0.50
2022-09-21T14:15:20.193Z,0.70
2022-09-21T14:18:11.852Z,0.80
2022-09-21T14:20:39.766Z,0.80
2022-09-21T14:23:19.879Z,1.10
2022-09-21T14:25:54.162Z,0.87
2022-09-21T14:28:33.923Z,0.80
2022-09-21T14:31:08.514Z,0.70
2022-09-21T14:33:59.482Z,0.70
2022-09-21T14:36:50.364Z,0.80
2022-09-21T14:39:32.070Z,0.73
2022-09-21T14:42:15.814Z,3.80
2022-09-21T14:44:43.462Z,0.70
2022-09-21T14:47:28.838Z,0.80
2022-09-21T14:50:27.105Z,0.80
2022-09-21T14:53:52.272Z,1.40
2022-09-21T14:57:08.687Z,1.30
2022-09-21T15:00:14.943Z,0.90
2022-09-21T15:02:49.700Z,1.10
2022-09-21T15:05:35.209Z,1.43
2022-09-21T15:08:33.085Z,0.80
2022-09-21T15:11:07.469Z,1.00
2022-09-21T15:13:58.544Z,0.90
2022-09-21T15:16:38.827Z,1.00
2022-09-21T15:19:27.967Z,1.37
2022-09-21T15:22:17.616Z,0.87
2022-09-21T15:25:06.036Z,1.20
2022-09-21T15:27:38.166Z,0.90
2022-09-21T15:30:20.541Z,0.87
2022-09-21T15:33:04.865Z,0.90
2022-09-21T15:35:35.748Z,1.80
2022-09-21T15:38:02.806Z,0.80
2022-09-21T15:40:46.306Z,1.20
2022-09-21T15:43:17.076Z,0.70
2022-09-21T15:46:02.102Z,0.70
2022-09-21T15:48:42.293Z,1.10
2022-09-21T15:51:32.393Z,1.10
2022-09-21T15:54:20.003Z,0.80
2022-09-21T15:56:47.509Z,1.00
2022-09-21T15:59:21.043Z,1.17
2022-09-21T16:01:53.120Z,0.90
2022-09-21T16:04:23.580Z,0.90
2022-09-21T16:07:05.761Z,0.70
2022-09-21T16:09:45.103Z,0.87
2022-09-21T16:12:52.079Z,0.80
2022-09-21T16:15:32.008Z,0.80
2022-09-21T16:18:07.009Z,1.20
2022-09-21T16:20:50.778Z,0.80
2022-09-21T16:23:23.330Z,0.90
2022-09-21T16:26:01.240Z,1.33
2022-09-21T16:28:35.731Z,1.10
2022-09-21T16:31:35.489Z,0.90
2022-09-21T16:34:18.620Z,0.90
2022-09-21T16:36:51.729Z,1.00
2022-09-21T16:39:28.479Z,2.17
2022-09-21T16:42:01.920Z,3.40
2022-09-21T16:44:34.702Z,1.20
2022-09-21T16:47:03.679Z,1.13
2022-09-21T16:49:36.754Z,1.40
2022-09-21T16:52:04.147Z,1.33
2022-09-21T16:54:35.245Z,1.20
2022-09-21T16:57:06.176Z,1.50
2022-09-21T16:59:34.818Z,2.17
2022-09-21T17:02:05.154Z,2.50
2022-09-21T17:04:36.312Z,3.47
2022-09-21T17:07:06.976Z,4.30
2022-09-21T17:09:38.565Z,2.93
2022-09-21T17:12:08.866Z,2.07
2022-09-21T17:14:41.809Z,3.30
2022-09-21T17:17:23.154Z,2.30
2022-09-21T17:19:54.363Z,4.00
2022-09-21T17:22:22.132Z,3.40
2022-09-21T17:24:55.052Z,3.67
2022-09-21T17:27:29.191Z,2.70
2022-09-21T17:30:03.611Z,2.60
2022-09-21T17:32:38.464Z,3.93
2022-09-21T17:35:39.909Z,4.37
2022-09-21T17:38:11.275Z,5.00
2022-09-21T17:40:42.884Z,7.23
2022-09-21T17:44:00.363Z,6.07
2022-09-21T17:46:44.690Z,7.90
2022-09-21T17:49:12.201Z,8.40
2022-09-21T17:52:00.875Z,8.10
2022-09-21T17:54:27.981Z,12.60
2022-09-21T17:57:11.878Z,10.10
2022-09-21T17:59:42.609Z,31.10
2022-09-21T18:02:28.071Z,26.57
2022-09-21T18:05:04.229Z,15.87
2022-09-21T18:07:33.873Z,5.13
2022-09-21T18:10:01.159Z,4.93
2022-09-21T18:12:40.299Z,4.80
2022-09-21T18:15:46.456Z,5.70
2022-09-21T18:19:07.439Z,7.47
2022-09-21T18:21:45.676Z,12.07
2022-09-21T18:24:31.141Z,9.90
2022-09-21T18:26:59.732Z,7.60
2022-09-21T18:29:40.769Z,10.60
2022-09-21T18:32:40.048Z,7.00
2022-09-21T18:35:24.388Z,7.70
2022-09-21T18:38:21.027Z,6.60
2022-09-21T18:40:53.590Z,6.30
2022-09-21T18:43:35.150Z,5.80
2022-09-21T18:46:20.896Z,4.83
2022-09-21T18:48:59.999Z,3.93
2022-09-21T18:51:29.858Z,4.03
2022-09-21T18:53:58.241Z,4.87
2022-09-21T18:56:37.410Z,4.70
2022-09-21T18:59:09.291Z,3.93
2022-09-21T19:01:39.632Z,5.10
2022-09-21T19:04:07.727Z,4.17
2022-09-21T19:07:04.953Z,4.97
2022-09-21T19:10:09.716Z,4.93
2022-09-21T19:13:27.141Z,4.80
2022-09-21T19:16:21.468Z,3.67
2022-09-21T19:18:52.445Z,3.80
2022-09-21T19:22:07.223Z,4.10
2022-09-21T19:25:03.690Z,3.43
2022-09-21T19:28:05.256Z,4.50
2022-09-21T19:30:32.705Z,5.07
2022-09-21T19:33:03.946Z,5.33
2022-09-21T19:35:35.997Z,5.10
2022-09-21T19:38:06.735Z,5.30
2022-09-21T19:40:40.362Z,5.30
2022-09-21T19:43:53.198Z,6.10
2022-09-21T19:46:46.642Z,5.93
2022-09-21T19:49:19.847Z,6.83
2022-09-21T19:51:49.205Z,6.17
2022-09-21T19:54:38.553Z,6.33
2022-09-21T19:57:43.167Z,6.90
2022-09-21T20:00:17.665Z,7.13
2022-09-21T20:03:31.260Z,6.30
2022-09-21T20:06:21.518Z,6.17
2022-09-21T20:09:26.388Z,5.80
2022-09-21T20:12:03.716Z,10.87
2022-09-21T20:15:05.366Z,8.07
2022-09-21T20:18:02.772Z,7.07
2022-09-21T20:20:30.132Z,7.70
2022-09-21T20:23:09.448Z,6.50
2022-09-21T20:25:52.752Z,6.43
2022-09-21T20:28:22.475Z,6.93
2022-09-21T20:30:54.499Z,6.03
2022-09-21T20:33:23.318Z,6.87
2022-09-21T20:35:55.736Z,6.53
2022-09-21T20:38:23.250Z,5.53
2022-09-21T20:40:51.447Z,6.17
2022-09-21T20:43:19.829Z,6.87
2022-09-21T20:45:49.537Z,6.07
2022-09-21T20:48:20.297Z,5.93
2022-09-21T20:50:49.516Z,6.70
2022-09-21T20:53:17.624Z,8.80
2022-09-21T20:55:56.826Z,6.70
2022-09-21T20:58:25.165Z,6.87
2022-09-21T21:00:56.447Z,6.60
2022-09-21T21:03:28.188Z,4.83
2022-09-21T21:06:11.638Z,5.43
2022-09-21T21:08:38.643Z,5.47
2022-09-21T21:11:06.222Z,7.20
2022-09-21T21:13:35.719Z,5.90
2022-09-21T21:16:08.176Z,4.80
2022-09-21T21:18:45.843Z,5.27
2022-09-21T21:21:12.986Z,5.63
2022-09-21T21:24:00.690Z,5.20
2022-09-21T21:26:50.246Z,5.40
2022-09-21T21:29:14.794Z,5.37
2022-09-21T21:31:41.934Z,5.23
2022-09-21T21:34:11.305Z,6.10
2022-09-21T21:36:42.977Z,5.83
2022-09-21T21:39:13.463Z,4.83
2022-09-21T21:41:41.453Z,5.20
2022-09-21T21:44:15.756Z,4.57
2022-09-21T21:46:43.447Z,4.63
2022-09-21T21:49:10.500Z,6.17
2022-09-21T21:51:39.950Z,5.80
2022-09-21T21:54:07.390Z,5.70
2022-09-21T21:56:34.951Z,5.90
2022-09-21T21:59:02.054Z,5.43
2022-09-21T22:01:32.019Z,5.30
2022-09-21T22:04:01.786Z,4.97
2022-09-21T22:06:34.362Z,5.30
2022-09-21T22:09:03.045Z,4.70
2022-09-21T22:11:31.107Z,3.97
2022-09-21T22:14:01.222Z,3.70
2022-09-21T22:16:33.872Z,4.30
2022-09-21T22:19:04.282Z,4.20
2022-09-21T22:21:35.051Z,4.07
2022-09-21T22:24:04.992Z,4.10
2022-09-21T22:26:42.456Z,3.80
2022-09-21T22:33:18.971Z,4.37
2022-09-21T22:35:45.916Z,4.80
2022-09-21T22:38:13.653Z,4.77
2022-09-21T22:40:44.016Z,4.80
2022-09-21T22:43:11.346Z,4.87
2022-09-21T22:45:40.596Z,5.30
2022-09-21T22:48:09.261Z,5.27
2022-09-21T22:50:39.100Z,5.20
2022-09-21T22:53:05.957Z,5.53
2022-09-21T22:55:35.739Z,6.03
2022-09-21T22:58:03.440Z,5.27
2022-09-21T23:00:30.868Z,4.70
2022-09-21T23:02:58.390Z,4.50
2022-09-21T23:05:27.793Z,3.80
2022-09-21T23:07:56.595Z,3.70
2022-09-21T23:10:26.480Z,4.07
2022-09-21T23:12:54.247Z,4.00
2022-09-21T23:15:22.500Z,3.73
2022-09-21T23:17:51.626Z,4.53
2022-09-21T23:20:20.955Z,4.30
2022-09-21T23:22:53.278Z,3.83
2022-09-21T23:25:20.616Z,4.40
2022-09-21T23:27:47.764Z,4.67
2022-09-21T23:30:19.386Z,4.17
2022-09-21T23:32:47.020Z,3.57
2022-09-21T23:35:14.126Z,4.77
2022-09-21T23:37:41.087Z,4.00
2022-09-21T23:40:09.334Z,4.20
2022-09-21T23:42:36.531Z,3.80
2022-09-21T23:45:06.127Z,4.80
2022-09-21T23:47:33.169Z,3.57
2022-09-21T23:50:00.145Z,3.83
2022-09-21T23:52:30.322Z,4.23
2022-09-21T23:55:01.869Z,4.77
2022-09-21T23:57:28.850Z,3.87
2022-09-21T23:59:55.879Z,4.23
